createdAt,value
2023-03-02T00:02:13.879Z,21.20
2023-03-02T00:04:40.392Z,21.73
2023-03-02T00:07:10.544Z,21.73
2023-03-02T00:09:38.464Z,23.70
2023-03-02T00:12:06.039Z,24.33
2023-03-02T00:14:32.576Z,25.15
2023-03-02T00:16:59.142Z,22.08
2023-03-02T00:19:25.635Z,22.58
2023-03-02T00:21:52.180Z,22.48
2023-03-02T00:24:18.741Z,21.17
2023-03-02T00:26:45.625Z,23.48
2023-03-02T00:29:12.240Z,24.33
2023-03-02T00:31:38.843Z,22.20
2023-03-02T00:34:05.548Z,23.33
2023-03-02T00:36:32.473Z,23.08
2023-03-02T00:38:59.256Z,22.35
2023-03-02T00:41:25.836Z,22.83
2023-03-02T00:43:52.405Z,21.88
2023-03-02T00:46:22.314Z,24.98
2023-03-02T00:48:49.813Z,22.30
2023-03-02T00:51:16.499Z,23.50
2023-03-02T00:53:43.169Z,24.10
2023-03-02T00:56:10.283Z,23.02
2023-03-02T00:58:37.297Z,26.30
2023-03-02T01:01:10.427Z,24.13
2023-03-02T01:03:37.288Z,21.90
2023-03-02T01:06:04.680Z,20.58
2023-03-02T01:08:31.569Z,24.27
2023-03-02T01:11:01.267Z,20.27
2023-03-02T01:13:28.648Z,22.52
2023-03-02T01:16:03.060Z,22.02
2023-03-02T01:18:30.142Z,21.02
2023-03-02T01:21:14.019Z,22.45
2023-03-02T01:23:40.862Z,23.13
2023-03-02T01:26:07.531Z,21.23
2023-03-02T01:28:34.146Z,23.08
2023-03-02T01:31:02.548Z,21.55
2023-03-02T01:33:29.185Z,22.65
2023-03-02T01:35:55.793Z,24.10
2023-03-02T01:38:22.331Z,20.67
2023-03-02T01:44:39.594Z,21.73
2023-03-02T01:47:13.886Z,24.17
2023-03-02T01:49:46.045Z,20.65
2023-03-02T01:52:13.232Z,23.60
2023-03-02T01:54:42.383Z,21.67
2023-03-02T01:57:10.223Z,23.40
2023-03-02T01:59:40.961Z,25.17
2023-03-02T02:02:10.336Z,25.45
2023-03-02T02:04:39.817Z,24.08
2023-03-02T02:07:09.033Z,22.15
2023-03-02T02:09:40.339Z,25.50
2023-03-02T02:12:12.562Z,22.52
2023-03-02T02:14:39.546Z,22.10
2023-03-02T02:17:06.396Z,24.15
2023-03-02T02:19:44.543Z,21.20
2023-03-02T02:22:11.828Z,23.63
2023-03-02T02:24:51.841Z,22.73
2023-03-02T02:27:18.368Z,24.30
2023-03-02T02:29:49.231Z,21.77
2023-03-02T02:32:24.044Z,20.77
2023-03-02T02:34:58.719Z,23.08
2023-03-02T02:37:38.272Z,26.15
2023-03-02T02:40:09.551Z,23.33
2023-03-02T02:42:40.671Z,21.33
2023-03-02T02:45:17.782Z,22.95
2023-03-02T02:47:44.416Z,21.85
2023-03-02T02:50:24.704Z,23.55
2023-03-02T02:53:19.683Z,22.17
2023-03-02T02:55:49.328Z,23.67
2023-03-02T02:58:25.236Z,22.67
2023-03-02T03:00:53.781Z,21.40
2023-03-02T03:03:32.726Z,23.42
2023-03-02T03:06:01.618Z,25.20
2023-03-02T03:08:46.324Z,22.23
2023-03-02T03:11:16.228Z,26.25
2023-03-02T03:13:43.931Z,21.35
2023-03-02T03:16:14.429Z,25.58
2023-03-02T03:18:46.780Z,22.90
2023-03-02T03:21:13.371Z,24.88
2023-03-02T03:23:39.940Z,22.23
2023-03-02T03:26:06.592Z,24.05
2023-03-02T03:28:33.722Z,23.88
2023-03-02T03:31:00.331Z,24.13
2023-03-02T03:33:27.062Z,23.73
2023-03-02T03:35:53.853Z,22.65
2023-03-02T03:38:20.670Z,27.52
2023-03-02T03:40:47.315Z,23.15
2023-03-02T03:43:15.089Z,26.67
2023-03-02T03:45:41.730Z,23.50
2023-03-02T03:48:08.424Z,22.23
2023-03-02T03:50:35.406Z,24.90
2023-03-02T03:53:03.838Z,24.13
2023-03-02T03:55:31.253Z,25.05
2023-03-02T03:57:57.835Z,21.13
2023-03-02T04:00:24.563Z,22.63
2023-03-02T04:02:51.312Z,22.80
2023-03-02T04:05:18.358Z,23.65
2023-03-02T04:07:45.026Z,22.67
2023-03-02T04:10:12.464Z,23.55
2023-03-02T04:12:40.990Z,24.65
2023-03-02T04:15:10.134Z,22.75
2023-03-02T04:17:36.686Z,23.05
2023-03-02T04:20:06.770Z,22.90
2023-03-02T04:22:33.454Z,22.15
2023-03-02T04:25:00.008Z,22.23
2023-03-02T04:27:26.563Z,22.83
2023-03-02T04:29:53.152Z,23.73
2023-03-02T04:32:20.561Z,21.73
2023-03-02T04:34:47.111Z,21.42
2023-03-02T04:37:15.601Z,22.27
2023-03-02T04:39:43.070Z,20.38
2023-03-02T04:42:09.595Z,22.27
2023-03-02T04:44:36.107Z,22.50
2023-03-02T04:47:02.675Z,24.98
2023-03-02T04:49:29.339Z,21.55
2023-03-02T04:51:55.882Z,22.27
2023-03-02T04:54:26.149Z,22.98
2023-03-02T04:56:53.823Z,23.40
2023-03-02T04:59:25.841Z,19.40
2023-03-02T05:01:54.707Z,20.83
2023-03-02T05:04:21.681Z,20.38
2023-03-02T05:06:48.251Z,26.40
2023-03-02T05:09:15.566Z,23.00
2023-03-02T05:11:42.169Z,21.50
2023-03-02T05:14:11.353Z,22.20
2023-03-02T05:16:39.757Z,20.60
2023-03-02T05:19:08.593Z,22.42
2023-03-02T05:21:35.337Z,22.42
2023-03-02T05:24:03.137Z,19.67
2023-03-02T05:26:29.816Z,22.55
2023-03-02T05:28:56.581Z,22.67
2023-03-02T05:31:29.256Z,21.75
2023-03-02T05:33:55.849Z,22.15
2023-03-02T05:36:23.384Z,25.67
2023-03-02T05:38:50.056Z,25.50
2023-03-02T05:41:16.799Z,25.17
2023-03-02T05:43:43.565Z,24.35
2023-03-02T05:46:10.209Z,24.83
2023-03-02T05:48:36.811Z,21.90
2023-03-02T05:51:03.700Z,22.73
2023-03-02T05:53:30.279Z,21.33
2023-03-02T05:55:56.824Z,21.70
2023-03-02T05:58:23.377Z,21.52
2023-03-02T06:00:50.009Z,22.35
2023-03-02T06:03:17.273Z,21.27
2023-03-02T06:05:43.932Z,21.80
2023-03-02T06:08:10.870Z,22.17
2023-03-02T06:10:37.470Z,21.27
2023-03-02T06:13:04.094Z,22.75
2023-03-02T06:15:30.725Z,20.33
2023-03-02T06:17:57.879Z,20.95
2023-03-02T06:20:24.804Z,21.63
2023-03-02T06:22:51.547Z,21.60
2023-03-02T06:25:23.407Z,22.58
2023-03-02T06:27:53.735Z,22.80
2023-03-02T06:30:23.250Z,19.48
2023-03-02T06:32:49.986Z,24.70
2023-03-02T06:35:16.876Z,20.80
2023-03-02T06:37:44.526Z,20.58
2023-03-02T06:40:13.538Z,20.73
2023-03-02T06:42:41.193Z,21.83
2023-03-02T06:45:08.682Z,19.38
2023-03-02T06:47:35.693Z,23.80
2023-03-02T06:50:02.502Z,21.52
2023-03-02T06:52:29.115Z,20.38
2023-03-02T06:54:56.682Z,22.38
2023-03-02T06:57:23.555Z,24.05
2023-03-02T06:59:50.128Z,23.60
2023-03-02T07:02:16.707Z,20.88
2023-03-02T07:04:43.299Z,21.75
2023-03-02T07:07:10.110Z,21.35
2023-03-02T07:09:36.684Z,22.02
2023-03-02T07:12:03.387Z,21.00
2023-03-02T07:14:29.943Z,24.95
2023-03-02T07:16:57.422Z,22.58
2023-03-02T07:19:24.123Z,22.67
2023-03-02T07:21:50.662Z,21.25
2023-03-02T07:24:17.194Z,22.92
2023-03-02T07:26:43.832Z,20.73
2023-03-02T07:29:10.378Z,20.73
2023-03-02T07:31:37.018Z,22.73
2023-03-02T07:34:03.855Z,18.58
2023-03-02T07:36:30.427Z,20.05
2023-03-02T07:38:57.493Z,19.77
2023-03-02T07:41:24.072Z,19.63
2023-03-02T07:43:50.628Z,17.65
2023-03-02T07:46:17.330Z,19.73
2023-03-02T07:48:44.104Z,25.65
2023-03-02T07:51:10.726Z,20.55
2023-03-02T07:53:40.170Z,18.65
2023-03-02T07:56:09.403Z,21.70
2023-03-02T07:58:36.018Z,20.63
2023-03-02T08:01:03.267Z,18.05
2023-03-02T08:03:29.833Z,21.77
2023-03-02T08:05:56.386Z,22.30
2023-03-02T08:08:22.965Z,25.42
2023-03-02T08:10:49.529Z,18.15
2023-03-02T08:13:16.419Z,19.65
2023-03-02T08:15:42.983Z,20.20
2023-03-02T08:18:09.599Z,19.63
2023-03-02T08:20:37.302Z,20.90
2023-03-02T08:23:03.854Z,20.00
2023-03-02T08:25:30.422Z,22.83
2023-03-02T08:27:56.941Z,19.50
2023-03-02T08:30:23.572Z,21.65
2023-03-02T08:32:50.191Z,21.30
2023-03-02T08:35:17.296Z,22.88
2023-03-02T08:37:43.882Z,20.15
2023-03-02T08:40:11.093Z,23.48
2023-03-02T08:42:37.665Z,23.48
2023-03-02T08:45:04.762Z,21.33
2023-03-02T08:47:32.347Z,20.50
2023-03-02T08:49:58.906Z,20.48
2023-03-02T08:52:25.508Z,25.73
2023-03-02T08:54:52.143Z,24.85
2023-03-02T08:57:20.373Z,21.83
2023-03-02T08:59:47.941Z,25.63
2023-03-02T09:02:14.604Z,20.80
2023-03-02T09:04:41.441Z,19.77
2023-03-02T09:07:09.509Z,23.48
2023-03-02T09:09:36.397Z,23.70
2023-03-02T09:12:03.007Z,21.73
2023-03-02T09:14:29.619Z,20.85
2023-03-02T09:16:56.293Z,23.73
2023-03-02T09:19:22.915Z,21.13
2023-03-02T09:21:49.719Z,21.55
2023-03-02T09:24:17.405Z,18.83
2023-03-02T09:26:44.241Z,20.10
2023-03-02T09:29:11.000Z,20.85
2023-03-02T09:31:38.310Z,22.67
2023-03-02T09:34:05.775Z,21.83
2023-03-02T09:36:32.733Z,20.25
2023-03-02T09:38:59.416Z,24.88
2023-03-02T09:41:40.403Z,20.48
2023-03-02T09:44:31.585Z,22.00
2023-03-02T09:47:05.371Z,22.20
2023-03-02T09:50:09.603Z,21.17
2023-03-02T09:52:40.652Z,18.50
2023-03-02T09:55:19.923Z,20.75
2023-03-02T09:57:47.002Z,19.90
2023-03-02T10:00:23.342Z,25.10
2023-03-02T10:02:54.466Z,22.67
2023-03-02T10:05:28.919Z,19.00
2023-03-02T10:07:57.829Z,26.45
2023-03-02T10:10:36.983Z,24.58
2023-03-02T10:13:26.474Z,20.10
2023-03-02T10:15:53.083Z,21.15
2023-03-02T10:18:48.410Z,23.08
2023-03-02T10:21:29.620Z,19.33
2023-03-02T10:24:12.325Z,19.40
2023-03-02T10:26:42.058Z,20.92
2023-03-02T10:29:46.029Z,19.85
2023-03-02T10:32:23.419Z,19.65
2023-03-02T10:34:52.435Z,19.00
2023-03-02T10:37:22.798Z,19.70
2023-03-02T10:39:49.677Z,22.77
2023-03-02T10:42:41.822Z,23.13
2023-03-02T10:45:30.995Z,24.08
2023-03-02T10:48:02.021Z,20.83
2023-03-02T10:50:30.514Z,21.30
2023-03-02T10:53:01.110Z,19.08
2023-03-02T10:55:28.746Z,21.05
2023-03-02T10:58:05.459Z,19.58
2023-03-02T11:00:33.791Z,18.70
2023-03-02T11:03:21.450Z,22.60
2023-03-02T11:05:48.256Z,19.20
2023-03-02T11:08:24.117Z,19.58
2023-03-02T11:11:00.825Z,19.90
2023-03-02T11:13:34.041Z,21.30
2023-03-02T11:16:22.181Z,19.20
2023-03-02T11:18:57.836Z,20.52
2023-03-02T11:21:45.175Z,17.77
2023-03-02T11:24:36.057Z,17.13
2023-03-02T11:27:03.392Z,20.08
2023-03-02T11:29:52.070Z,20.73
2023-03-02T11:32:22.574Z,20.08
2023-03-02T11:34:57.627Z,16.13
2023-03-02T11:37:30.115Z,20.13
2023-03-02T11:40:17.998Z,17.92
2023-03-02T11:42:45.642Z,18.30
2023-03-02T11:45:15.416Z,18.80
2023-03-02T11:47:54.303Z,17.23
2023-03-02T11:50:26.087Z,17.73
2023-03-02T11:52:58.543Z,19.15
2023-03-02T11:55:28.716Z,19.13
2023-03-02T12:00:31.116Z,18.05
2023-03-02T12:02:59.377Z,17.05
2023-03-02T12:05:29.223Z,18.50
2023-03-02T12:08:08.516Z,18.92
2023-03-02T12:10:42.407Z,18.83
2023-03-02T12:13:17.111Z,18.27
2023-03-02T12:15:46.774Z,19.88
2023-03-02T12:18:22.057Z,18.15
2023-03-02T12:23:41.168Z,18.90
2023-03-02T12:26:20.273Z,16.83
2023-03-02T12:29:09.846Z,17.23
2023-03-02T12:31:47.255Z,18.08
2023-03-02T12:34:32.473Z,16.92
2023-03-02T12:37:04.359Z,15.00
2023-03-02T12:39:56.429Z,17.52
2023-03-02T12:42:44.515Z,16.73
2023-03-02T12:45:11.714Z,16.13
2023-03-02T12:47:41.401Z,19.98
2023-03-02T12:50:19.883Z,15.88
2023-03-02T12:53:04.031Z,19.02
2023-03-02T12:55:30.979Z,15.60
2023-03-02T12:58:02.964Z,15.77
2023-03-02T13:00:32.767Z,17.98
2023-03-02T13:03:02.122Z,17.52
2023-03-02T13:05:32.088Z,17.42
2023-03-02T13:08:04.191Z,17.95
2023-03-02T13:10:38.456Z,16.70
2023-03-02T13:13:21.017Z,19.95
2023-03-02T13:15:57.230Z,17.10
2023-03-02T13:18:27.150Z,17.38
2023-03-02T13:20:55.093Z,14.52
2023-03-02T13:23:21.656Z,13.77
2023-03-02T13:25:54.413Z,16.63
2023-03-02T13:28:32.463Z,12.95
2023-03-02T13:31:07.214Z,12.77
2023-03-02T13:33:42.359Z,14.98
2023-03-02T13:36:16.966Z,18.08
2023-03-02T13:38:57.100Z,13.35
2023-03-02T13:41:25.987Z,12.13
2023-03-02T13:43:52.841Z,15.40
2023-03-02T13:46:20.045Z,16.38
2023-03-02T13:49:09.184Z,17.88
2023-03-02T13:51:40.866Z,16.58
2023-03-02T13:54:22.780Z,14.02
2023-03-02T13:56:51.302Z,13.85
2023-03-02T13:59:20.041Z,15.48
2023-03-02T14:01:47.388Z,16.15
2023-03-02T14:04:17.533Z,15.50
2023-03-02T14:06:45.347Z,17.65
2023-03-02T14:09:12.055Z,15.23
2023-03-02T14:11:49.111Z,18.38
2023-03-02T14:14:24.668Z,16.73
2023-03-02T14:16:51.429Z,18.55
2023-03-02T14:19:18.531Z,19.38
2023-03-02T14:21:46.542Z,17.80
2023-03-02T14:24:13.249Z,16.00
2023-03-02T14:26:47.135Z,18.52
2023-03-02T14:29:28.932Z,17.42
2023-03-02T14:31:56.870Z,21.13
2023-03-02T14:34:23.575Z,15.48
2023-03-02T14:36:53.468Z,14.25
2023-03-02T14:39:22.191Z,16.98
2023-03-02T14:45:42.464Z,16.92
2023-03-02T14:48:08.984Z,15.15
2023-03-02T14:50:40.375Z,18.17
2023-03-02T14:53:12.510Z,16.60
2023-03-02T14:55:40.998Z,17.95
2023-03-02T14:58:18.111Z,18.33
2023-03-02T15:00:45.115Z,19.25
2023-03-02T15:03:22.448Z,18.70
2023-03-02T15:06:00.880Z,17.70
2023-03-02T15:08:29.064Z,17.38
2023-03-02T15:10:55.973Z,20.83
2023-03-02T15:13:22.550Z,20.02
2023-03-02T15:15:49.938Z,16.75
2023-03-02T15:18:19.549Z,17.58
2023-03-02T15:20:46.337Z,18.00
2023-03-02T15:23:12.924Z,19.25
2023-03-02T15:25:39.626Z,15.95
2023-03-02T15:28:06.234Z,16.98
2023-03-02T15:30:32.782Z,17.55
2023-03-02T15:32:59.477Z,19.63
2023-03-02T15:35:27.793Z,19.83
2023-03-02T15:37:55.577Z,17.23
2023-03-02T15:40:22.129Z,17.00
2023-03-02T15:42:48.916Z,20.08
2023-03-02T15:45:15.507Z,17.95
2023-03-02T15:47:42.118Z,21.05
2023-03-02T15:50:09.797Z,14.65
2023-03-02T15:52:36.382Z,17.60
2023-03-02T15:55:03.414Z,16.70
2023-03-02T15:57:29.986Z,19.88
2023-03-02T15:59:56.591Z,20.50
2023-03-02T16:02:23.094Z,18.10
2023-03-02T16:04:49.624Z,19.23
2023-03-02T16:07:16.139Z,18.42
2023-03-02T16:09:45.176Z,19.65
2023-03-02T16:12:11.750Z,17.75
2023-03-02T16:14:38.310Z,17.60
2023-03-02T16:17:04.907Z,17.02
2023-03-02T16:19:32.155Z,17.48
2023-03-02T16:21:58.888Z,16.83
2023-03-02T16:24:25.582Z,15.25
2023-03-02T16:26:53.073Z,16.08
2023-03-02T16:29:19.750Z,14.40
2023-03-02T16:31:47.258Z,15.35
2023-03-02T16:34:14.208Z,15.10
2023-03-02T16:36:42.049Z,15.73
2023-03-02T16:39:10.521Z,14.35
2023-03-02T16:41:39.468Z,15.82
2023-03-02T16:44:06.676Z,16.23
2023-03-02T16:46:36.562Z,14.27
2023-03-02T16:49:04.025Z,18.10
2023-03-02T16:51:30.602Z,14.75
2023-03-02T16:53:57.332Z,17.50
2023-03-02T16:56:24.143Z,14.27
2023-03-02T16:58:50.662Z,14.38
2023-03-02T17:01:20.266Z,17.85
2023-03-02T17:03:47.856Z,15.52
2023-03-02T17:06:16.271Z,14.05
2023-03-02T17:08:43.041Z,14.23
2023-03-02T17:11:09.990Z,15.57
2023-03-02T17:13:36.698Z,14.55
2023-03-02T17:16:03.599Z,13.30
2023-03-02T17:18:30.700Z,14.27
2023-03-02T17:20:58.705Z,14.82
2023-03-02T17:23:27.077Z,14.65
2023-03-02T17:25:54.458Z,15.02
2023-03-02T17:28:21.472Z,15.90
2023-03-02T17:30:48.140Z,20.33
2023-03-02T17:33:14.959Z,20.70
2023-03-02T17:35:42.464Z,21.88
2023-03-02T17:38:09.296Z,18.48
2023-03-02T17:40:35.978Z,17.65
2023-03-02T17:43:02.821Z,16.40
2023-03-02T17:45:29.665Z,17.75
2023-03-02T17:47:57.906Z,19.20
2023-03-02T17:50:25.037Z,18.58
2023-03-02T17:52:51.684Z,18.83
2023-03-02T17:55:18.387Z,18.20
2023-03-02T17:57:45.064Z,17.60
2023-03-02T18:00:16.261Z,18.75
2023-03-02T18:02:42.903Z,19.25
2023-03-02T18:05:10.481Z,19.60
2023-03-02T18:07:37.580Z,14.65
2023-03-02T18:10:06.931Z,16.25
2023-03-02T18:12:34.588Z,13.35
2023-03-02T18:15:01.373Z,14.13
2023-03-02T18:17:28.312Z,17.45
2023-03-02T18:19:55.005Z,14.82
2023-03-02T18:22:21.984Z,16.65
2023-03-02T18:24:50.573Z,17.77
2023-03-02T18:27:17.543Z,16.55
2023-03-02T18:29:44.315Z,18.30
2023-03-02T18:32:11.542Z,14.48
2023-03-02T18:34:40.927Z,15.23
2023-03-02T18:37:08.172Z,15.68
2023-03-02T18:39:35.106Z,14.82
2023-03-02T18:42:01.794Z,15.07
2023-03-02T18:44:31.121Z,15.48
2023-03-02T18:46:58.583Z,16.20
2023-03-02T18:49:25.549Z,15.10
2023-03-02T18:51:53.006Z,18.02
2023-03-02T18:54:19.630Z,14.23
2023-03-02T18:56:46.359Z,22.55
2023-03-02T18:59:13.886Z,23.25
2023-03-02T19:01:40.764Z,18.05
2023-03-02T19:04:07.447Z,19.48
2023-03-02T19:06:34.543Z,23.25
2023-03-02T19:09:01.266Z,21.83
2023-03-02T19:15:10.421Z,26.00
2023-03-02T19:17:39.604Z,22.90
2023-03-02T19:20:07.518Z,24.15
2023-03-02T19:22:34.601Z,22.33
2023-03-02T19:25:01.186Z,23.80
2023-03-02T19:27:27.835Z,21.02
2023-03-02T19:29:54.551Z,19.42
2023-03-02T19:32:21.442Z,29.42
2023-03-02T19:34:48.683Z,32.75
2023-03-02T19:37:15.408Z,22.00
2023-03-02T19:39:42.357Z,19.48
2023-03-02T19:42:09.458Z,16.33
2023-03-02T19:44:36.456Z,17.25
2023-03-02T19:47:04.176Z,18.90
2023-03-02T19:49:30.702Z,28.23
2023-03-02T19:51:58.892Z,20.08
2023-03-02T19:54:25.785Z,21.67
2023-03-02T19:56:53.821Z,27.67
2023-03-02T19:59:22.029Z,20.80
2023-03-02T20:01:51.018Z,21.33
2023-03-02T20:04:18.513Z,21.38
2023-03-02T20:06:45.561Z,26.83
2023-03-02T20:09:14.437Z,30.27
2023-03-02T20:11:41.009Z,25.73
2023-03-02T20:14:07.587Z,24.92
2023-03-02T20:16:35.549Z,24.52
2023-03-02T20:19:03.249Z,24.58
2023-03-02T20:21:31.367Z,21.35
2023-03-02T20:23:58.410Z,22.38
2023-03-02T20:26:26.521Z,23.65
2023-03-02T20:28:55.327Z,25.73
2023-03-02T20:31:24.468Z,21.95
2023-03-02T20:33:54.201Z,25.10
2023-03-02T20:36:28.024Z,23.75
2023-03-02T20:39:00.443Z,23.77
2023-03-02T20:41:27.394Z,21.98
2023-03-02T20:43:54.340Z,17.98
2023-03-02T20:46:25.102Z,19.02
2023-03-02T20:48:52.731Z,18.67
2023-03-02T20:51:20.482Z,16.15
2023-03-02T20:53:47.149Z,16.13
2023-03-02T20:56:15.204Z,15.07
2023-03-02T20:58:43.305Z,14.95
2023-03-02T21:01:11.332Z,16.52
2023-03-02T21:03:38.548Z,17.48
2023-03-02T21:06:07.267Z,15.23
2023-03-02T21:08:38.569Z,16.15
2023-03-02T21:11:10.629Z,15.65
2023-03-02T21:13:39.043Z,13.75
2023-03-02T21:16:08.404Z,17.42
2023-03-02T21:18:35.308Z,19.88
2023-03-02T21:21:02.812Z,14.40
2023-03-02T21:23:29.469Z,19.23
2023-03-02T21:25:56.919Z,18.15
2023-03-02T21:28:23.564Z,17.33
2023-03-02T21:30:50.276Z,20.65
2023-03-02T21:33:16.906Z,18.33
2023-03-02T21:35:46.196Z,18.60
2023-03-02T21:38:13.251Z,20.80
2023-03-02T21:40:45.628Z,20.67
2023-03-02T21:43:13.192Z,17.52
2023-03-02T21:45:41.154Z,18.23
2023-03-02T21:48:08.488Z,19.48
2023-03-02T21:50:37.868Z,21.45
2023-03-02T21:53:05.169Z,19.73
2023-03-02T21:55:32.923Z,18.70
2023-03-02T21:58:00.113Z,19.52
2023-03-02T22:00:32.851Z,20.42
2023-03-02T22:03:00.600Z,20.25
2023-03-02T22:05:27.808Z,20.98
2023-03-02T22:07:55.062Z,19.63
2023-03-02T22:10:37.913Z,18.17
2023-03-02T22:13:13.474Z,17.85
2023-03-02T22:15:41.484Z,19.25
2023-03-02T22:18:16.354Z,18.77
2023-03-02T22:20:45.334Z,21.40
2023-03-02T22:23:14.383Z,21.15
2023-03-02T22:25:43.408Z,19.35
2023-03-02T22:28:22.525Z,18.65
2023-03-02T22:30:53.633Z,17.90
2023-03-02T22:33:23.586Z,19.52
2023-03-02T22:35:51.592Z,19.02
2023-03-02T22:38:22.843Z,20.30
2023-03-02T22:40:49.566Z,20.33
2023-03-02T22:43:24.777Z,19.65
2023-03-02T22:46:15.726Z,19.50
2023-03-02T22:48:44.920Z,17.60
2023-03-02T22:51:27.843Z,18.17
2023-03-02T22:53:56.783Z,20.13
2023-03-02T22:56:28.578Z,20.25
2023-03-02T22:58:56.776Z,20.00
2023-03-02T23:01:24.837Z,19.33
2023-03-02T23:03:54.936Z,18.48
2023-03-02T23:06:33.195Z,19.45
2023-03-02T23:09:02.160Z,19.40
2023-03-02T23:11:31.735Z,20.95
2023-03-02T23:14:01.729Z,21.35
2023-03-02T23:16:34.016Z,18.85
2023-03-02T23:19:01.631Z,19.15
2023-03-02T23:21:38.715Z,23.13
2023-03-02T23:24:07.376Z,22.25
2023-03-02T23:26:34.556Z,22.60
2023-03-02T23:29:01.273Z,22.42
2023-03-02T23:31:27.864Z,22.80
2023-03-02T23:33:54.527Z,19.10
2023-03-02T23:36:21.317Z,19.67
2023-03-02T23:38:48.864Z,22.20
2023-03-02T23:41:16.063Z,23.58
2023-03-02T23:43:42.762Z,20.25
2023-03-02T23:46:13.823Z,20.90
2023-03-02T23:48:41.784Z,24.00
2023-03-02T23:51:08.866Z,21.95
2023-03-02T23:53:35.539Z,21.25
2023-03-02T23:56:02.317Z,22.17
2023-03-02T23:58:28.960Z,22.33
